sensor_id;sensor_type;location;lat;lon;timestamp;temperature;humidity
76537;DHT22;65381;51.254;15.592;2023-01-09T00:01:46;5.20;74.40
76537;DHT22;65381;51.254;15.592;2023-01-09T00:04:15;5.30;74.40
76537;DHT22;65381;51.254;15.592;2023-01-09T00:06:44;5.20;74.40
76537;DHT22;65381;51.254;15.592;2023-01-09T00:09:22;5.10;74.40
76537;DHT22;65381;51.254;15.592;2023-01-09T00:11:50;5.00;74.40
76537;DHT22;65381;51.254;15.592;2023-01-09T00:14:19;4.90;74.50
76537;DHT22;65381;51.254;15.592;2023-01-09T00:16:47;4.80;74.50
76537;DHT22;65381;51.254;15.592;2023-01-09T00:19:15;4.70;74.50
76537;DHT22;65381;51.254;15.592;2023-01-09T00:21:43;4.60;74.60
76537;DHT22;65381;51.254;15.592;2023-01-09T00:24:11;4.50;74.70
76537;DHT22;65381;51.254;15.592;2023-01-09T00:26:39;4.40;74.70
76537;DHT22;65381;51.254;15.592;2023-01-09T00:29:09;4.40;74.80
76537;DHT22;65381;51.254;15.592;2023-01-09T00:31:37;4.40;74.90
76537;DHT22;65381;51.254;15.592;2023-01-09T00:34:06;4.40;74.90
76537;DHT22;65381;51.254;15.592;2023-01-09T00:36:36;4.40;74.80
76537;DHT22;65381;51.254;15.592;2023-01-09T00:39:05;4.40;74.90
76537;DHT22;65381;51.254;15.592;2023-01-09T00:41:45;4.40;74.70
76537;DHT22;65381;51.254;15.592;2023-01-09T00:44:34;4.30;74.60
76537;DHT22;65381;51.254;15.592;2023-01-09T00:47:24;4.30;74.70
76537;DHT22;65381;51.254;15.592;2023-01-09T00:49:54;4.20;74.70
76537;DHT22;65381;51.254;15.592;2023-01-09T00:52:26;4.20;74.80
76537;DHT22;65381;51.254;15.592;2023-01-09T00:54:54;4.10;74.80
76537;DHT22;65381;51.254;15.592;2023-01-09T00:57:24;4.10;74.70
76537;DHT22;65381;51.254;15.592;2023-01-09T00:59:52;4.10;74.70
76537;DHT22;65381;51.254;15.592;2023-01-09T01:02:20;4.10;74.70
76537;DHT22;65381;51.254;15.592;2023-01-09T01:04:48;4.00;74.80
76537;DHT22;65381;51.254;15.592;2023-01-09T01:07:34;4.00;74.90
76537;DHT22;65381;51.254;15.592;2023-01-09T01:10:12;4.00;74.90
76537;DHT22;65381;51.254;15.592;2023-01-09T01:12:40;4.00;74.90
76537;DHT22;65381;51.254;15.592;2023-01-09T01:15:09;4.00;74.90
76537;DHT22;65381;51.254;15.592;2023-01-09T01:17:39;4.00;74.90
76537;DHT22;65381;51.254;15.592;2023-01-09T01:20:11;3.90;74.90
76537;DHT22;65381;51.254;15.592;2023-01-09T01:22:39;3.90;75.00
76537;DHT22;65381;51.254;15.592;2023-01-09T01:25:11;3.90;75.00
76537;DHT22;65381;51.254;15.592;2023-01-09T01:27:39;4.00;75.00
76537;DHT22;65381;51.254;15.592;2023-01-09T01:30:09;4.00;75.00
76537;DHT22;65381;51.254;15.592;2023-01-09T01:32:38;4.00;75.00
76537;DHT22;65381;51.254;15.592;2023-01-09T01:35:07;4.10;75.00
76537;DHT22;65381;51.254;15.592;2023-01-09T01:37:35;4.10;75.00
76537;DHT22;65381;51.254;15.592;2023-01-09T01:40:06;4.10;75.00
76537;DHT22;65381;51.254;15.592;2023-01-09T01:42:34;4.10;75.00
76537;DHT22;65381;51.254;15.592;2023-01-09T01:45:08;4.10;75.10
76537;DHT22;65381;51.254;15.592;2023-01-09T01:53:53;4.10;75.10
76537;DHT22;65381;51.254;15.592;2023-01-09T01:59:09;4.10;75.00
76537;DHT22;65381;51.254;15.592;2023-01-09T02:01:40;4.10;74.80
76537;DHT22;65381;51.254;15.592;2023-01-09T02:04:09;4.10;74.80
76537;DHT22;65381;51.254;15.592;2023-01-09T02:06:38;4.00;74.90
76537;DHT22;65381;51.254;15.592;2023-01-09T02:09:06;4.00;75.00
76537;DHT22;65381;51.254;15.592;2023-01-09T02:11:35;4.00;75.00
76537;DHT22;65381;51.254;15.592;2023-01-09T02:14:03;4.00;75.00
76537;DHT22;65381;51.254;15.592;2023-01-09T02:20:18;3.90;74.90
76537;DHT22;65381;51.254;15.592;2023-01-09T02:28:33;3.70;74.90
76537;DHT22;65381;51.254;15.592;2023-01-09T02:31:09;3.70;74.90
76537;DHT22;65381;51.254;15.592;2023-01-09T02:34:01;3.60;75.00
76537;DHT22;65381;51.254;15.592;2023-01-09T02:42:13;3.70;75.30
76537;DHT22;65381;51.254;15.592;2023-01-09T02:44:42;3.70;75.30
76537;DHT22;65381;51.254;15.592;2023-01-09T02:50:01;3.80;75.50
76537;DHT22;65381;51.254;15.592;2023-01-09T02:55:53;4.00;75.50
76537;DHT22;65381;51.254;15.592;2023-01-09T02:58:35;4.10;75.40
76537;DHT22;65381;51.254;15.592;2023-01-09T03:01:28;4.20;75.40
76537;DHT22;65381;51.254;15.592;2023-01-09T03:07:26;4.30;75.30
76537;DHT22;65381;51.254;15.592;2023-01-09T03:09:35;4.30;75.30
76537;DHT22;65381;51.254;15.592;2023-01-09T03:14:40;4.40;75.50
76537;DHT22;65381;51.254;15.592;2023-01-09T03:17:13;4.50;75.50
76537;DHT22;65381;51.254;15.592;2023-01-09T03:19:42;4.50;75.50
76537;DHT22;65381;51.254;15.592;2023-01-09T03:22:12;4.70;75.60
76537;DHT22;65381;51.254;15.592;2023-01-09T03:24:40;4.70;75.60
76537;DHT22;65381;51.254;15.592;2023-01-09T03:27:08;4.90;75.50
76537;DHT22;65381;51.254;15.592;2023-01-09T03:29:36;5.00;75.50
76537;DHT22;65381;51.254;15.592;2023-01-09T03:32:04;5.00;75.30
76537;DHT22;65381;51.254;15.592;2023-01-09T03:34:32;5.10;75.20
76537;DHT22;65381;51.254;15.592;2023-01-09T03:37:00;5.10;75.10
76537;DHT22;65381;51.254;15.592;2023-01-09T03:39:28;5.20;75.00
76537;DHT22;65381;51.254;15.592;2023-01-09T03:41:56;5.20;75.00
76537;DHT22;65381;51.254;15.592;2023-01-09T03:44:23;5.10;74.80
76537;DHT22;65381;51.254;15.592;2023-01-09T03:46:51;5.10;74.80
76537;DHT22;65381;51.254;15.592;2023-01-09T03:49:19;5.00;74.70
76537;DHT22;65381;51.254;15.592;2023-01-09T03:51:48;4.90;74.60
76537;DHT22;65381;51.254;15.592;2023-01-09T03:54:15;4.80;74.70
76537;DHT22;65381;51.254;15.592;2023-01-09T03:56:43;4.70;75.00
76537;DHT22;65381;51.254;15.592;2023-01-09T03:59:12;4.70;75.10
76537;DHT22;65381;51.254;15.592;2023-01-09T04:01:40;4.70;75.10
76537;DHT22;65381;51.254;15.592;2023-01-09T04:04:08;4.70;75.20
76537;DHT22;65381;51.254;15.592;2023-01-09T04:06:36;4.80;75.20
76537;DHT22;65381;51.254;15.592;2023-01-09T04:09:03;4.90;75.30
76537;DHT22;65381;51.254;15.592;2023-01-09T04:11:31;4.90;75.40
76537;DHT22;65381;51.254;15.592;2023-01-09T04:13:59;5.00;75.40
76537;DHT22;65381;51.254;15.592;2023-01-09T04:16:27;5.00;75.30
76537;DHT22;65381;51.254;15.592;2023-01-09T04:18:55;5.00;75.30
76537;DHT22;65381;51.254;15.592;2023-01-09T04:21:23;5.10;75.20
76537;DHT22;65381;51.254;15.592;2023-01-09T04:23:50;5.00;75.20
76537;DHT22;65381;51.254;15.592;2023-01-09T04:26:18;5.00;75.30
76537;DHT22;65381;51.254;15.592;2023-01-09T04:28:46;5.00;75.40
76537;DHT22;65381;51.254;15.592;2023-01-09T04:31:14;5.00;75.50
76537;DHT22;65381;51.254;15.592;2023-01-09T04:33:42;5.00;75.60
76537;DHT22;65381;51.254;15.592;2023-01-09T04:36:10;5.00;75.70
76537;DHT22;65381;51.254;15.592;2023-01-09T04:38:38;5.00;75.70
76537;DHT22;65381;51.254;15.592;2023-01-09T04:41:06;5.10;75.70
76537;DHT22;65381;51.254;15.592;2023-01-09T04:43:34;5.10;75.70
76537;DHT22;65381;51.254;15.592;2023-01-09T04:46:02;5.10;75.60
76537;DHT22;65381;51.254;15.592;2023-01-09T04:48:29;5.00;75.50
76537;DHT22;65381;51.254;15.592;2023-01-09T04:50:57;5.00;75.50
76537;DHT22;65381;51.254;15.592;2023-01-09T04:53:25;5.00;75.80
76537;DHT22;65381;51.254;15.592;2023-01-09T04:55:53;5.00;76.00
76537;DHT22;65381;51.254;15.592;2023-01-09T04:58:21;5.00;76.20
76537;DHT22;65381;51.254;15.592;2023-01-09T05:00:49;5.00;76.10
76537;DHT22;65381;51.254;15.592;2023-01-09T05:03:16;5.00;76.10
76537;DHT22;65381;51.254;15.592;2023-01-09T05:05:44;5.00;76.00
76537;DHT22;65381;51.254;15.592;2023-01-09T05:08:12;5.00;76.00
76537;DHT22;65381;51.254;15.592;2023-01-09T05:15:13;4.90;76.20
76537;DHT22;65381;51.254;15.592;2023-01-09T05:17:40;4.90;76.00
76537;DHT22;65381;51.254;15.592;2023-01-09T05:20:09;4.90;76.20
76537;DHT22;65381;51.254;15.592;2023-01-09T05:22:36;4.90;76.50
76537;DHT22;65381;51.254;15.592;2023-01-09T05:25:05;5.00;76.50
76537;DHT22;65381;51.254;15.592;2023-01-09T05:27:32;5.00;76.50
76537;DHT22;65381;51.254;15.592;2023-01-09T05:30:00;5.00;76.60
76537;DHT22;65381;51.254;15.592;2023-01-09T05:32:28;5.00;76.70
76537;DHT22;65381;51.254;15.592;2023-01-09T05:34:56;5.00;76.50
76537;DHT22;65381;51.254;15.592;2023-01-09T05:37:24;5.10;76.60
76537;DHT22;65381;51.254;15.592;2023-01-09T05:39:52;5.10;76.60
76537;DHT22;65381;51.254;15.592;2023-01-09T05:42:20;5.20;76.60
76537;DHT22;65381;51.254;15.592;2023-01-09T05:44:48;5.20;76.60
76537;DHT22;65381;51.254;15.592;2023-01-09T05:47:15;5.20;76.70
76537;DHT22;65381;51.254;15.592;2023-01-09T05:49:44;5.10;76.70
76537;DHT22;65381;51.254;15.592;2023-01-09T05:52:11;5.10;76.80
76537;DHT22;65381;51.254;15.592;2023-01-09T05:54:40;5.10;76.90
76537;DHT22;65381;51.254;15.592;2023-01-09T05:57:36;5.10;77.10
76537;DHT22;65381;51.254;15.592;2023-01-09T06:00:05;5.20;77.10
76537;DHT22;65381;51.254;15.592;2023-01-09T06:02:32;5.30;77.00
76537;DHT22;65381;51.254;15.592;2023-01-09T06:05:01;5.30;77.00
76537;DHT22;65381;51.254;15.592;2023-01-09T06:07:29;5.30;77.00
76537;DHT22;65381;51.254;15.592;2023-01-09T06:09:57;5.30;77.00
76537;DHT22;65381;51.254;15.592;2023-01-09T06:12:25;5.20;77.20
76537;DHT22;65381;51.254;15.592;2023-01-09T06:14:53;5.30;77.50
76537;DHT22;65381;51.254;15.592;2023-01-09T06:17:21;5.30;77.50
76537;DHT22;65381;51.254;15.592;2023-01-09T06:19:49;5.40;77.60
76537;DHT22;65381;51.254;15.592;2023-01-09T06:22:18;5.50;77.50
76537;DHT22;65381;51.254;15.592;2023-01-09T06:24:45;5.50;77.50
76537;DHT22;65381;51.254;15.592;2023-01-09T06:27:13;5.50;77.40
76537;DHT22;65381;51.254;15.592;2023-01-09T06:29:41;5.50;77.40
76537;DHT22;65381;51.254;15.592;2023-01-09T06:32:09;5.50;77.50
76537;DHT22;65381;51.254;15.592;2023-01-09T06:34:37;5.60;77.60
76537;DHT22;65381;51.254;15.592;2023-01-09T06:37:05;5.70;77.60
76537;DHT22;65381;51.254;15.592;2023-01-09T06:39:33;5.80;77.60
76537;DHT22;65381;51.254;15.592;2023-01-09T06:42:01;5.80;77.50
76537;DHT22;65381;51.254;15.592;2023-01-09T06:44:29;5.80;77.50
76537;DHT22;65381;51.254;15.592;2023-01-09T06:46:57;5.80;77.40
76537;DHT22;65381;51.254;15.592;2023-01-09T06:49:25;5.80;77.40
76537;DHT22;65381;51.254;15.592;2023-01-09T06:51:53;5.80;77.40
76537;DHT22;65381;51.254;15.592;2023-01-09T06:54:21;5.80;77.50
76537;DHT22;65381;51.254;15.592;2023-01-09T06:56:49;5.80;77.50
76537;DHT22;65381;51.254;15.592;2023-01-09T06:59:17;5.80;77.60
76537;DHT22;65381;51.254;15.592;2023-01-09T07:01:45;5.90;77.40
76537;DHT22;65381;51.254;15.592;2023-01-09T07:04:19;5.80;77.20
76537;DHT22;65381;51.254;15.592;2023-01-09T07:06:49;5.70;77.20
76537;DHT22;65381;51.254;15.592;2023-01-09T07:09:17;5.50;77.30
76537;DHT22;65381;51.254;15.592;2023-01-09T07:11:45;5.50;77.40
76537;DHT22;65381;51.254;15.592;2023-01-09T07:14:13;5.50;77.50
76537;DHT22;65381;51.254;15.592;2023-01-09T07:16:41;5.50;77.60
76537;DHT22;65381;51.254;15.592;2023-01-09T07:19:09;5.50;77.60
76537;DHT22;65381;51.254;15.592;2023-01-09T07:21:37;5.50;77.50
76537;DHT22;65381;51.254;15.592;2023-01-09T07:24:05;5.50;77.30
76537;DHT22;65381;51.254;15.592;2023-01-09T07:26:33;5.50;77.50
76537;DHT22;65381;51.254;15.592;2023-01-09T07:29:01;5.50;77.50
76537;DHT22;65381;51.254;15.592;2023-01-09T07:31:29;5.60;77.50
76537;DHT22;65381;51.254;15.592;2023-01-09T07:33:57;5.60;77.40
76537;DHT22;65381;51.254;15.592;2023-01-09T07:36:25;5.70;77.30
76537;DHT22;65381;51.254;15.592;2023-01-09T07:38:53;5.70;77.30
76537;DHT22;65381;51.254;15.592;2023-01-09T07:41:21;5.60;77.40
76537;DHT22;65381;51.254;15.592;2023-01-09T07:43:49;5.60;77.60
76537;DHT22;65381;51.254;15.592;2023-01-09T07:46:17;5.70;77.70
76537;DHT22;65381;51.254;15.592;2023-01-09T07:48:45;5.70;77.50
76537;DHT22;65381;51.254;15.592;2023-01-09T07:51:13;5.70;77.30
76537;DHT22;65381;51.254;15.592;2023-01-09T07:53:41;5.50;77.30
76537;DHT22;65381;51.254;15.592;2023-01-09T07:56:09;5.50;77.60
76537;DHT22;65381;51.254;15.592;2023-01-09T07:58:37;5.50;77.90
76537;DHT22;65381;51.254;15.592;2023-01-09T08:01:05;5.50;78.00
76537;DHT22;65381;51.254;15.592;2023-01-09T08:03:33;5.50;78.10
76537;DHT22;65381;51.254;15.592;2023-01-09T08:06:03;5.60;78.00
76537;DHT22;65381;51.254;15.592;2023-01-09T08:08:31;5.60;78.10
76537;DHT22;65381;51.254;15.592;2023-01-09T08:10:58;5.60;78.00
76537;DHT22;65381;51.254;15.592;2023-01-09T08:13:26;5.60;78.00
76537;DHT22;65381;51.254;15.592;2023-01-09T08:15:54;5.60;77.90
76537;DHT22;65381;51.254;15.592;2023-01-09T08:18:22;5.70;77.80
76537;DHT22;65381;51.254;15.592;2023-01-09T08:20:50;5.60;77.80
76537;DHT22;65381;51.254;15.592;2023-01-09T08:23:19;5.60;77.80
76537;DHT22;65381;51.254;15.592;2023-01-09T08:25:47;5.60;77.90
76537;DHT22;65381;51.254;15.592;2023-01-09T08:28:15;5.60;78.00
76537;DHT22;65381;51.254;15.592;2023-01-09T08:30:43;5.60;78.00
76537;DHT22;65381;51.254;15.592;2023-01-09T08:33:11;5.50;78.10
76537;DHT22;65381;51.254;15.592;2023-01-09T08:35:39;5.50;78.20
76537;DHT22;65381;51.254;15.592;2023-01-09T08:38:09;5.50;78.20
76537;DHT22;65381;51.254;15.592;2023-01-09T08:40:37;5.60;78.30
76537;DHT22;65381;51.254;15.592;2023-01-09T08:43:06;5.60;78.30
76537;DHT22;65381;51.254;15.592;2023-01-09T08:45:52;5.70;78.30
76537;DHT22;65381;51.254;15.592;2023-01-09T08:48:39;5.70;78.30
76537;DHT22;65381;51.254;15.592;2023-01-09T08:55:39;5.90;78.40
76537;DHT22;65381;51.254;15.592;2023-01-09T08:58:07;6.10;78.20
76537;DHT22;65381;51.254;15.592;2023-01-09T09:05:08;6.10;78.50
76537;DHT22;65381;51.254;15.592;2023-01-09T09:07:36;6.30;78.30
76537;DHT22;65381;51.254;15.592;2023-01-09T09:14:37;6.40;78.40
76537;DHT22;65381;51.254;15.592;2023-01-09T09:17:23;6.50;78.10
76537;DHT22;65381;51.254;15.592;2023-01-09T09:19:51;6.50;78.20
76537;DHT22;65381;51.254;15.592;2023-01-09T09:22:19;6.50;78.20
76537;DHT22;65381;51.254;15.592;2023-01-09T09:24:49;6.60;78.20
76537;DHT22;65381;51.254;15.592;2023-01-09T09:27:16;6.60;78.30
76537;DHT22;65381;51.254;15.592;2023-01-09T09:29:44;6.60;78.20
76537;DHT22;65381;51.254;15.592;2023-01-09T09:32:12;6.60;78.20
76537;DHT22;65381;51.254;15.592;2023-01-09T09:34:40;6.50;78.30
76537;DHT22;65381;51.254;15.592;2023-01-09T09:37:08;6.50;78.40
76537;DHT22;65381;51.254;15.592;2023-01-09T09:39:36;6.50;78.40
76537;DHT22;65381;51.254;15.592;2023-01-09T09:49:08;6.50;78.60
76537;DHT22;65381;51.254;15.592;2023-01-09T09:51:31;6.50;78.60
76537;DHT22;65381;51.254;15.592;2023-01-09T09:54:07;6.60;78.50
76537;DHT22;65381;51.254;15.592;2023-01-09T09:56:50;6.60;78.60
76537;DHT22;65381;51.254;15.592;2023-01-09T09:59:32;6.60;78.60
76537;DHT22;65381;51.254;15.592;2023-01-09T10:05:06;6.50;78.80
76537;DHT22;65381;51.254;15.592;2023-01-09T10:07:40;6.60;78.70
76537;DHT22;65381;51.254;15.592;2023-01-09T10:12:58;6.60;78.90
76537;DHT22;65381;51.254;15.592;2023-01-09T10:15:43;6.70;79.00
76537;DHT22;65381;51.254;15.592;2023-01-09T10:21:01;7.00;79.10
76537;DHT22;65381;51.254;15.592;2023-01-09T10:26:26;7.20;79.00
76537;DHT22;65381;51.254;15.592;2023-01-09T10:32:32;7.20;79.10
76537;DHT22;65381;51.254;15.592;2023-01-09T10:36:16;7.40;79.30
76537;DHT22;65381;51.254;15.592;2023-01-09T10:38:19;7.60;79.20
76537;DHT22;65381;51.254;15.592;2023-01-09T10:41:12;7.80;79.10
76537;DHT22;65381;51.254;15.592;2023-01-09T10:46:24;8.10;79.00
76537;DHT22;65381;51.254;15.592;2023-01-09T10:48:58;8.10;78.90
76537;DHT22;65381;51.254;15.592;2023-01-09T10:51:41;8.20;78.80
76537;DHT22;65381;51.254;15.592;2023-01-09T10:54:13;8.20;79.00
76537;DHT22;65381;51.254;15.592;2023-01-09T10:56:46;8.20;79.00
76537;DHT22;65381;51.254;15.592;2023-01-09T10:59:17;8.20;79.00
76537;DHT22;65381;51.254;15.592;2023-01-09T11:01:45;8.20;79.10
76537;DHT22;65381;51.254;15.592;2023-01-09T11:04:25;8.10;79.10
76537;DHT22;65381;51.254;15.592;2023-01-09T11:07:06;8.00;79.20
76537;DHT22;65381;51.254;15.592;2023-01-09T11:09:58;8.00;79.30
76537;DHT22;65381;51.254;15.592;2023-01-09T11:12:29;7.90;79.50
76537;DHT22;65381;51.254;15.592;2023-01-09T11:17:46;7.90;79.50
76537;DHT22;65381;51.254;15.592;2023-01-09T11:20:26;7.90;79.40
76537;DHT22;65381;51.254;15.592;2023-01-09T11:22:56;7.80;79.50
76537;DHT22;65381;51.254;15.592;2023-01-09T11:25:27;7.80;79.50
76537;DHT22;65381;51.254;15.592;2023-01-09T11:28:03;7.80;79.60
76537;DHT22;65381;51.254;15.592;2023-01-09T11:30:36;7.80;79.50
76537;DHT22;65381;51.254;15.592;2023-01-09T11:33:16;7.80;79.60
76537;DHT22;65381;51.254;15.592;2023-01-09T11:38:26;7.80;79.70
76537;DHT22;65381;51.254;15.592;2023-01-09T11:40:55;7.90;79.80
76537;DHT22;65381;51.254;15.592;2023-01-09T11:43:36;8.10;80.10
76537;DHT22;65381;51.254;15.592;2023-01-09T11:46:08;8.40;80.10
76537;DHT22;65381;51.254;15.592;2023-01-09T11:48:53;8.60;79.70
76537;DHT22;65381;51.254;15.592;2023-01-09T11:51:32;8.70;79.50
76537;DHT22;65381;51.254;15.592;2023-01-09T11:56:36;8.90;79.40
76537;DHT22;65381;51.254;15.592;2023-01-09T11:59:13;8.90;79.20
76537;DHT22;65381;51.254;15.592;2023-01-09T12:10:28;8.80;78.90
76537;DHT22;65381;51.254;15.592;2023-01-09T12:13:10;8.60;79.00
76537;DHT22;65381;51.254;15.592;2023-01-09T12:16:14;8.60;79.00
76537;DHT22;65381;51.254;15.592;2023-01-09T12:19:25;8.60;79.00
76537;DHT22;65381;51.254;15.592;2023-01-09T12:22:14;8.50;79.00
76537;DHT22;65381;51.254;15.592;2023-01-09T12:27:54;8.40;79.00
76537;DHT22;65381;51.254;15.592;2023-01-09T12:35:06;8.40;79.10
76537;DHT22;65381;51.254;15.592;2023-01-09T12:37:51;8.40;78.70
76537;DHT22;65381;51.254;15.592;2023-01-09T12:46:20;8.30;79.00
76537;DHT22;65381;51.254;15.592;2023-01-09T12:54:11;8.30;78.90
76537;DHT22;65381;51.254;15.592;2023-01-09T12:56:48;8.30;78.90
76537;DHT22;65381;51.254;15.592;2023-01-09T12:59:38;8.30;78.80
76537;DHT22;65381;51.254;15.592;2023-01-09T13:02:22;8.30;78.80
76537;DHT22;65381;51.254;15.592;2023-01-09T13:05:12;8.20;78.80
76537;DHT22;65381;51.254;15.592;2023-01-09T13:07:55;8.20;78.90
76537;DHT22;65381;51.254;15.592;2023-01-09T13:10:40;8.10;78.90
76537;DHT22;65381;51.254;15.592;2023-01-09T13:13:14;8.10;78.90
76537;DHT22;65381;51.254;15.592;2023-01-09T13:15:46;8.10;79.00
76537;DHT22;65381;51.254;15.592;2023-01-09T13:18:26;8.10;78.70
76537;DHT22;65381;51.254;15.592;2023-01-09T13:20:55;8.00;78.70
76537;DHT22;65381;51.254;15.592;2023-01-09T13:23:54;8.00;78.80
76537;DHT22;65381;51.254;15.592;2023-01-09T13:26:43;7.90;79.00
76537;DHT22;65381;51.254;15.592;2023-01-09T13:34:35;7.90;79.00
76537;DHT22;65381;51.254;15.592;2023-01-09T13:37:25;7.80;79.00
76537;DHT22;65381;51.254;15.592;2023-01-09T13:40:44;7.80;79.00
76537;DHT22;65381;51.254;15.592;2023-01-09T13:43:01;7.70;79.00
76537;DHT22;65381;51.254;15.592;2023-01-09T13:45:33;7.70;79.00
76537;DHT22;65381;51.254;15.592;2023-01-09T13:50:47;7.50;79.10
76537;DHT22;65381;51.254;15.592;2023-01-09T14:04:26;7.60;79.30
76537;DHT22;65381;51.254;15.592;2023-01-09T14:07:18;7.70;79.20
76537;DHT22;65381;51.254;15.592;2023-01-09T14:09:56;7.80;79.20
76537;DHT22;65381;51.254;15.592;2023-01-09T14:12:27;7.80;79.10
76537;DHT22;65381;51.254;15.592;2023-01-09T14:14:58;7.70;79.10
76537;DHT22;65381;51.254;15.592;2023-01-09T14:17:34;7.70;79.20
76537;DHT22;65381;51.254;15.592;2023-01-09T14:24:45;7.60;79.30
76537;DHT22;65381;51.254;15.592;2023-01-09T14:28:01;7.50;79.10
76537;DHT22;65381;51.254;15.592;2023-01-09T14:34:30;7.50;79.20
76537;DHT22;65381;51.254;15.592;2023-01-09T14:37:03;7.50;79.20
76537;DHT22;65381;51.254;15.592;2023-01-09T14:39:32;7.40;79.20
76537;DHT22;65381;51.254;15.592;2023-01-09T14:42:03;7.40;79.20
76537;DHT22;65381;51.254;15.592;2023-01-09T14:44:49;7.30;79.20
76537;DHT22;65381;51.254;15.592;2023-01-09T14:47:45;7.20;79.20
76537;DHT22;65381;51.254;15.592;2023-01-09T14:58:43;7.00;79.50
76537;DHT22;65381;51.254;15.592;2023-01-09T15:01:17;7.00;79.30
76537;DHT22;65381;51.254;15.592;2023-01-09T15:03:52;6.90;79.30
76537;DHT22;65381;51.254;15.592;2023-01-09T15:06:28;6.90;79.40
76537;DHT22;65381;51.254;15.592;2023-01-09T15:11:43;6.80;79.40
76537;DHT22;65381;51.254;15.592;2023-01-09T15:14:37;6.70;79.40
76537;DHT22;65381;51.254;15.592;2023-01-09T15:17:21;6.70;79.50
76537;DHT22;65381;51.254;15.592;2023-01-09T15:19:52;6.70;79.50
76537;DHT22;65381;51.254;15.592;2023-01-09T15:22:35;6.70;79.50
76537;DHT22;65381;51.254;15.592;2023-01-09T15:25:34;6.60;79.50
76537;DHT22;65381;51.254;15.592;2023-01-09T15:28:30;6.60;79.60
76537;DHT22;65381;51.254;15.592;2023-01-09T15:31:12;6.60;79.50
76537;DHT22;65381;51.254;15.592;2023-01-09T15:33:44;6.50;79.40
76537;DHT22;65381;51.254;15.592;2023-01-09T15:36:24;6.50;79.40
76537;DHT22;65381;51.254;15.592;2023-01-09T15:38:53;6.50;79.40
76537;DHT22;65381;51.254;15.592;2023-01-09T15:41:28;6.40;79.40
76537;DHT22;65381;51.254;15.592;2023-01-09T15:44:19;6.40;79.40
76537;DHT22;65381;51.254;15.592;2023-01-09T15:46:49;6.30;79.40
76537;DHT22;65381;51.254;15.592;2023-01-09T15:49:19;6.30;79.40
76537;DHT22;65381;51.254;15.592;2023-01-09T15:51:49;6.20;79.50
76537;DHT22;65381;51.254;15.592;2023-01-09T15:54:27;6.20;79.60
76537;DHT22;65381;51.254;15.592;2023-01-09T15:57:30;6.10;79.60
76537;DHT22;65381;51.254;15.592;2023-01-09T16:00:29;6.10;79.60
76537;DHT22;65381;51.254;15.592;2023-01-09T16:03:02;6.00;79.50
76537;DHT22;65381;51.254;15.592;2023-01-09T16:05:43;6.00;79.40
76537;DHT22;65381;51.254;15.592;2023-01-09T16:08:23;5.90;79.40
76537;DHT22;65381;51.254;15.592;2023-01-09T16:10:56;5.90;79.60
76537;DHT22;65381;51.254;15.592;2023-01-09T16:13:26;5.90;79.50
76537;DHT22;65381;51.254;15.592;2023-01-09T16:15:55;5.90;79.50
76537;DHT22;65381;51.254;15.592;2023-01-09T16:18:32;5.80;79.50
76537;DHT22;65381;51.254;15.592;2023-01-09T16:21:22;5.80;79.50
76537;DHT22;65381;51.254;15.592;2023-01-09T16:23:55;5.80;79.50
76537;DHT22;65381;51.254;15.592;2023-01-09T16:26:26;5.70;79.50
76537;DHT22;65381;51.254;15.592;2023-01-09T16:28:56;5.70;79.50
76537;DHT22;65381;51.254;15.592;2023-01-09T16:31:43;5.70;79.50
76537;DHT22;65381;51.254;15.592;2023-01-09T16:34:12;5.70;79.50
76537;DHT22;65381;51.254;15.592;2023-01-09T16:36:43;5.70;79.50
76537;DHT22;65381;51.254;15.592;2023-01-09T16:39:13;5.60;79.50
76537;DHT22;65381;51.254;15.592;2023-01-09T16:41:42;5.60;79.50
76537;DHT22;65381;51.254;15.592;2023-01-09T16:44:29;5.60;79.50
76537;DHT22;65381;51.254;15.592;2023-01-09T16:46:58;5.60;79.60
76537;DHT22;65381;51.254;15.592;2023-01-09T16:49:26;5.60;79.60
76537;DHT22;65381;51.254;15.592;2023-01-09T16:51:55;5.50;79.60
76537;DHT22;65381;51.254;15.592;2023-01-09T16:54:23;5.50;79.70
76537;DHT22;65381;51.254;15.592;2023-01-09T16:56:52;5.50;79.60
76537;DHT22;65381;51.254;15.592;2023-01-09T16:59:23;5.50;79.60
76537;DHT22;65381;51.254;15.592;2023-01-09T17:01:53;5.50;79.60
76537;DHT22;65381;51.254;15.592;2023-01-09T17:04:23;5.50;79.60
76537;DHT22;65381;51.254;15.592;2023-01-09T17:06:52;5.50;79.70
76537;DHT22;65381;51.254;15.592;2023-01-09T17:09:20;5.50;79.70
76537;DHT22;65381;51.254;15.592;2023-01-09T17:11:54;5.50;79.70
76537;DHT22;65381;51.254;15.592;2023-01-09T17:14:24;5.50;79.70
76537;DHT22;65381;51.254;15.592;2023-01-09T17:16:53;5.50;79.70
76537;DHT22;65381;51.254;15.592;2023-01-09T17:19:22;5.50;79.70
76537;DHT22;65381;51.254;15.592;2023-01-09T17:21:52;5.50;79.80
76537;DHT22;65381;51.254;15.592;2023-01-09T17:24:21;5.50;79.70
76537;DHT22;65381;51.254;15.592;2023-01-09T17:27:09;5.50;79.80
76537;DHT22;65381;51.254;15.592;2023-01-09T17:34:03;5.40;79.80
76537;DHT22;65381;51.254;15.592;2023-01-09T17:36:32;5.40;79.60
76537;DHT22;65381;51.254;15.592;2023-01-09T17:43:33;5.30;79.90
76537;DHT22;65381;51.254;15.592;2023-01-09T17:46:01;5.30;79.60
76537;DHT22;65381;51.254;15.592;2023-01-09T17:48:29;5.30;79.70
76537;DHT22;65381;51.254;15.592;2023-01-09T17:50:59;5.30;79.70
76537;DHT22;65381;51.254;15.592;2023-01-09T17:53:27;5.30;79.80
76537;DHT22;65381;51.254;15.592;2023-01-09T17:55:56;5.30;79.80
76537;DHT22;65381;51.254;15.592;2023-01-09T17:58:26;5.30;79.80
76537;DHT22;65381;51.254;15.592;2023-01-09T18:00:57;5.30;79.80
76537;DHT22;65381;51.254;15.592;2023-01-09T18:03:26;5.30;79.80
76537;DHT22;65381;51.254;15.592;2023-01-09T18:05:59;5.20;79.70
76537;DHT22;65381;51.254;15.592;2023-01-09T18:08:28;5.20;79.80
76537;DHT22;65381;51.254;15.592;2023-01-09T18:11:01;5.10;79.80
76537;DHT22;65381;51.254;15.592;2023-01-09T18:13:30;5.20;79.80
76537;DHT22;65381;51.254;15.592;2023-01-09T18:16:00;5.10;79.90
76537;DHT22;65381;51.254;15.592;2023-01-09T18:18:29;5.10;80.00
76537;DHT22;65381;51.254;15.592;2023-01-09T18:20:57;5.20;80.00
76537;DHT22;65381;51.254;15.592;2023-01-09T18:23:26;5.30;80.10
76537;DHT22;65381;51.254;15.592;2023-01-09T18:25:54;5.30;80.00
76537;DHT22;65381;51.254;15.592;2023-01-09T18:28:25;5.30;80.00
76537;DHT22;65381;51.254;15.592;2023-01-09T18:35:26;5.30;80.00
76537;DHT22;65381;51.254;15.592;2023-01-09T18:37:55;5.40;79.80
76537;DHT22;65381;51.254;15.592;2023-01-09T18:44:52;5.30;80.00
76537;DHT22;65381;51.254;15.592;2023-01-09T18:47:20;5.30;79.80
76537;DHT22;65381;51.254;15.592;2023-01-09T18:49:51;5.30;80.00
76537;DHT22;65381;51.254;15.592;2023-01-09T18:52:19;5.40;80.10
76537;DHT22;65381;51.254;15.592;2023-01-09T18:54:47;5.50;80.20